Time,TemperatureF,DewpointF,PressureIn,WindDirection,WindDirectionDegrees,WindSpeedMPH,WindSpeedGustMPH,Humidity,HourlyPrecipIn,Conditions,Clouds,dailyrainin,SoftwareType,DateUTC
2013-04-10 00:02:00,72.9,67.8,29.68,SSE,156,2.0,10.0,84,0.00,,,0.00,meteohub,2013-04-10 05:02:00,
2013-04-10 00:07:00,72.9,68.0,29.68,South,185,3.0,10.0,85,0.00,,,0.00,meteohub,2013-04-10 05:07:00,
2013-04-10 00:12:00,72.9,68.0,29.68,South,184,4.0,8.0,85,0.00,,,0.00,meteohub,2013-04-10 05:12:00,
2013-04-10 00:17:00,72.7,67.8,29.68,SE,138,3.0,8.0,85,0.00,,,0.00,meteohub,2013-04-10 05:17:00,
2013-04-10 00:22:00,72.9,68.0,29.68,South,186,3.0,11.0,85,0.00,,,0.00,meteohub,2013-04-10 05:22:00,
2013-04-10 00:27:00,72.7,67.8,29.68,SSE,150,3.0,11.0,85,0.00,,,0.00,meteohub,2013-04-10 05:27:00,
2013-04-10 00:33:00,72.7,67.8,29.68,SE,144,2.0,11.0,85,0.00,,,0.00,meteohub,2013-04-10 05:33:00,
2013-04-10 00:38:00,72.7,67.8,29.68,SE,126,3.0,11.0,85,0.00,,,0.00,meteohub,2013-04-10 05:38:00,
2013-04-10 00:43:00,72.7,67.8,29.68,South,169,3.0,8.0,85,0.00,,,0.00,meteohub,2013-04-10 05:43:00,
2013-04-10 00:49:00,72.7,67.8,29.68,SSE,153,1.0,8.0,85,0.00,,,0.00,meteohub,2013-04-10 05:49:00,
2013-04-10 00:54:00,72.5,67.8,29.68,SE,144,4.0,8.0,85,0.00,,,0.00,meteohub,2013-04-10 05:54:00,
2013-04-10 00:59:00,72.3,67.6,29.67,SSE,158,3.0,8.0,85,0.00,,,0.00,meteohub,2013-04-10 05:59:00,
2013-04-10 01:04:00,72.1,67.6,29.67,SSE,154,5.0,9.0,86,0.00,,,0.00,meteohub,2013-04-10 06:04:00,
2013-04-10 01:10:00,72.0,67.5,29.67,SSE,148,5.0,9.0,86,0.00,,,0.00,meteohub,2013-04-10 06:10:00,
2013-04-10 01:15:00,72.0,67.5,29.67,South,173,3.0,9.0,86,0.00,,,0.00,meteohub,2013-04-10 06:15:00,
2013-04-10 01:20:00,71.8,67.6,29.66,SSE,157,4.0,8.0,87,0.00,,,0.00,meteohub,2013-04-10 06:20:00,
2013-04-10 01:25:00,71.8,67.6,29.66,SSE,156,0.0,8.0,87,0.00,,,0.00,meteohub,2013-04-10 06:25:00,
2013-04-10 01:31:00,71.8,67.6,29.66,SE,136,2.0,8.0,87,0.00,,,0.00,meteohub,2013-04-10 06:31:00,
2013-04-10 01:37:00,71.8,67.6,29.66,SE,135,5.0,9.0,87,0.00,,,0.00,meteohub,2013-04-10 06:37:00,
2013-04-10 01:43:00,71.8,67.6,29.66,SSE,159,1.0,9.0,87,0.00,,,0.00,meteohub,2013-04-10 06:43:00,
2013-04-10 01:48:00,72.0,67.8,29.66,SE,144,4.0,9.0,87,0.00,,,0.00,meteohub,2013-04-10 06:48:00,
2013-04-10 01:53:00,72.0,67.8,29.66,South,170,6.0,9.0,87,0.00,,,0.00,meteohub,2013-04-10 06:53:00,
2013-04-10 01:59:00,72.0,67.8,29.67,SSE,158,7.0,11.0,87,0.00,,,0.00,meteohub,2013-04-10 06:59:00,
2013-04-10 02:04:00,72.0,67.8,29.67,South,173,7.0,11.0,87,0.00,,,0.00,meteohub,2013-04-10 07:04:00,
2013-04-10 02:09:00,72.0,67.8,29.67,South,171,4.0,11.0,87,0.00,,,0.00,meteohub,2013-04-10 07:09:00,
2013-04-10 02:15:00,72.1,68.0,29.66,SSE,151,7.0,11.0,87,0.00,,,0.00,meteohub,2013-04-10 07:15:00,
2013-04-10 02:20:00,72.1,68.0,29.66,SSE,153,7.0,11.0,87,0.00,,,0.00,meteohub,2013-04-10 07:20:00,
2013-04-10 02:25:00,72.1,68.0,29.66,South,180,5.0,11.0,87,0.00,,,0.00,meteohub,2013-04-10 07:25:00,
2013-04-10 02:30:00,72.3,68.2,29.66,SSE,158,5.0,11.0,87,0.00,,,0.00,meteohub,2013-04-10 07:30:00,
2013-04-10 02:36:00,72.1,68.0,29.66,South,169,4.0,11.0,87,0.00,,,0.00,meteohub,2013-04-10 07:36:00,
2013-04-10 02:41:00,72.1,68.4,29.66,South,185,5.0,11.0,88,0.00,,,0.00,meteohub,2013-04-10 07:41:00,
2013-04-10 02:46:00,72.1,68.4,29.66,South,176,3.0,8.0,88,0.00,,,0.00,meteohub,2013-04-10 07:46:00,
2013-04-10 02:52:00,72.1,68.4,29.66,SSW,192,4.0,8.0,88,0.00,,,0.00,meteohub,2013-04-10 07:52:00,
2013-04-10 02:57:00,72.3,68.5,29.66,South,186,2.0,12.0,88,0.00,,,0.00,meteohub,2013-04-10 07:57:00,
2013-04-10 03:02:00,72.3,68.5,29.66,South,188,4.0,12.0,88,0.00,,,0.00,meteohub,2013-04-10 08:02:00,
2013-04-10 03:08:00,72.5,68.7,29.66,SSE,162,3.0,12.0,88,0.00,,,0.00,meteohub,2013-04-10 08:08:00,
2013-04-10 03:13:00,72.5,68.7,29.65,South,181,5.0,8.0,88,0.00,,,0.00,meteohub,2013-04-10 08:13:00,
2013-04-10 03:18:00,72.5,69.1,29.65,SSW,200,2.0,8.0,89,0.00,,,0.00,meteohub,2013-04-10 08:18:00,
2013-04-10 03:24:00,72.3,68.9,29.65,South,182,3.0,8.0,89,0.00,,,0.00,meteohub,2013-04-10 08:24:00,
2013-04-10 03:29:00,72.3,68.9,29.65,South,188,4.0,8.0,89,0.00,,,0.00,meteohub,2013-04-10 08:29:00,
2013-04-10 03:34:00,72.3,68.9,29.65,South,169,3.0,7.0,89,0.00,,,0.00,meteohub,2013-04-10 08:34:00,
2013-04-10 03:39:00,72.3,68.9,29.66,WNW,291,5.0,7.0,89,0.00,,,0.00,meteohub,2013-04-10 08:39:00,
2013-04-10 03:45:00,66.9,56.5,29.67,WNW,301,7.0,20.0,69,0.00,,,0.00,meteohub,2013-04-10 08:45:00,
2013-04-10 03:50:00,61.9,54.9,29.68,NW,314,6.0,20.0,78,0.00,,,0.00,meteohub,2013-04-10 08:50:00,
2013-04-10 03:55:00,59.2,53.6,29.68,NW,306,6.0,20.0,82,0.00,,,0.00,meteohub,2013-04-10 08:55:00,
2013-04-10 04:00:00,56.5,51.6,29.67,NNW,346,10.0,20.0,84,0.00,,,0.00,meteohub,2013-04-10 09:00:00,
2013-04-10 04:05:00,55.2,51.1,29.67,NNW,339,6.0,20.0,86,0.00,,,0.00,meteohub,2013-04-10 09:05:00,
2013-04-10 04:11:00,54.1,50.4,29.68,NW,326,7.0,17.0,87,0.00,,,0.00,meteohub,2013-04-10 09:11:00,
2013-04-10 04:16:00,53.2,49.8,29.68,WNW,302,13.0,17.0,88,0.00,,,0.00,meteohub,2013-04-10 09:16:00,
2013-04-10 04:22:00,52.7,49.5,29.69,NNW,342,5.0,15.0,89,0.00,,,0.00,meteohub,2013-04-10 09:22:00,
2013-04-10 04:27:00,52.2,49.1,29.70,NW,317,12.0,15.0,89,0.00,,,0.01,meteohub,2013-04-10 09:27:00,
2013-04-10 04:32:00,51.8,48.9,29.69,NNW,345,5.0,15.0,90,0.01,,,0.01,meteohub,2013-04-10 09:32:00,
2013-04-10 04:38:00,51.4,48.6,29.70,NNW,342,4.0,16.0,90,0.01,,,0.01,meteohub,2013-04-10 09:38:00,
2013-04-10 04:43:00,50.5,47.1,29.71,North,5,5.0,16.0,88,0.01,,,0.01,meteohub,2013-04-10 09:43:00,
2013-04-10 04:48:00,50.2,47.1,29.72,NNW,336,3.0,14.0,89,0.01,,,0.01,meteohub,2013-04-10 09:48:00,
2013-04-10 04:53:00,49.8,46.9,29.72,NNW,333,3.0,14.0,90,0.01,,,0.01,meteohub,2013-04-10 09:53:00,
2013-04-10 04:59:00,49.5,46.6,29.72,NW,318,8.0,14.0,90,0.01,,,0.01,meteohub,2013-04-10 09:59:00,
2013-04-10 05:04:00,48.9,45.9,29.71,North,350,7.0,11.0,89,0.01,,,0.01,meteohub,2013-04-10 10:04:00,
2013-04-10 05:10:00,48.7,45.7,29.73,NW,316,10.0,11.0,89,0.01,,,0.01,meteohub,2013-04-10 10:10:00,
2013-04-10 05:15:00,48.6,45.5,29.74,NNW,334,9.0,11.0,89,0.01,,,0.01,meteohub,2013-04-10 10:15:00,
2013-04-10 05:20:00,48.4,45.3,29.75,North,355,5.0,17.0,89,0.01,,,0.01,meteohub,2013-04-10 10:20:00,
2013-04-10 05:25:00,48.4,45.3,29.75,North,355,8.0,17.0,89,0.01,,,0.01,meteohub,2013-04-10 10:25:00,
2013-04-10 05:31:00,48.2,45.1,29.75,NNW,344,4.0,17.0,89,0.01,,,0.01,meteohub,2013-04-10 10:31:00,
2013-04-10 05:36:00,47.8,44.4,29.76,NNW,340,4.0,17.0,88,0.00,,,0.01,meteohub,2013-04-10 10:36:00,
2013-04-10 05:42:00,47.8,44.4,29.75,North,5,6.0,16.0,88,0.00,,,0.01,meteohub,2013-04-10 10:42:00,
2013-04-10 05:47:00,47.7,44.6,29.77,WNW,293,9.0,16.0,89,0.00,,,0.01,meteohub,2013-04-10 10:47:00,
2013-04-10 05:52:00,47.7,44.2,29.78,North,5,12.0,16.0,88,0.00,,,0.01,meteohub,2013-04-10 10:52:00,
2013-04-10 05:57:00,47.5,44.1,29.78,NW,312,7.0,16.0,88,0.00,,,0.01,meteohub,2013-04-10 10:57:00,
2013-04-10 06:03:00,47.5,44.1,29.78,NW,308,11.0,18.0,88,0.00,,,0.01,meteohub,2013-04-10 11:03:00,
2013-04-10 06:08:00,47.3,43.9,29.79,North,0,7.0,18.0,88,0.00,,,0.01,meteohub,2013-04-10 11:08:00,
2013-04-10 06:13:00,47.1,44.1,29.79,NW,317,12.0,18.0,89,0.00,,,0.01,meteohub,2013-04-10 11:13:00,
2013-04-10 06:18:00,47.1,44.1,29.79,NNW,337,6.0,18.0,89,0.00,,,0.01,meteohub,2013-04-10 11:18:00,
2013-04-10 06:23:00,46.9,43.9,29.80,NNW,342,11.0,20.0,89,0.00,,,0.01,meteohub,2013-04-10 11:23:00,
2013-04-10 06:28:00,46.9,44.2,29.80,NW,311,5.0,20.0,90,0.00,,,0.01,meteohub,2013-04-10 11:28:00,
2013-04-10 06:33:00,46.6,43.5,29.80,NNE,17,8.0,20.0,89,0.00,,,0.01,meteohub,2013-04-10 11:33:00,
2013-04-10 06:38:00,46.0,43.0,29.80,North,5,8.0,20.0,89,0.00,,,0.01,meteohub,2013-04-10 11:38:00,
2013-04-10 06:43:00,45.9,43.2,29.80,NW,311,7.0,20.0,90,0.00,,,0.01,meteohub,2013-04-10 11:43:00,
2013-04-10 06:48:00,45.7,43.0,29.79,NW,309,5.0,23.0,90,0.00,,,0.01,meteohub,2013-04-10 11:48:00,
2013-04-10 06:53:00,45.5,43.0,29.80,NNW,332,3.0,23.0,91,0.00,,,0.01,meteohub,2013-04-10 11:53:00,
2013-04-10 06:58:00,45.3,42.8,29.81,NW,320,12.0,23.0,91,0.00,,,0.02,meteohub,2013-04-10 11:58:00,
2013-04-10 07:04:00,45.1,42.6,29.81,NW,321,6.0,23.0,91,0.00,,,0.02,meteohub,2013-04-10 12:04:00,
2013-04-10 07:09:00,45.1,43.0,29.81,NNW,335,3.0,23.0,92,0.01,,,0.02,meteohub,2013-04-10 12:09:00,
2013-04-10 07:14:00,45.1,43.0,29.81,NNE,15,4.0,16.0,92,0.01,,,0.02,meteohub,2013-04-10 12:14:00,
2013-04-10 07:19:00,45.1,42.6,29.81,NNW,340,3.0,16.0,91,0.01,,,0.02,meteohub,2013-04-10 12:19:00,
2013-04-10 07:24:00,45.0,42.4,29.82,North,350,5.0,16.0,91,0.01,,,0.02,meteohub,2013-04-10 12:24:00,
2013-04-10 07:30:00,44.8,42.3,29.82,NNE,23,3.0,16.0,91,0.01,,,0.02,meteohub,2013-04-10 12:30:00,
2013-04-10 07:35:00,44.8,42.6,29.82,NNW,342,4.0,16.0,92,0.01,,,0.02,meteohub,2013-04-10 12:35:00,
2013-04-10 07:40:00,44.8,42.6,29.81,North,355,1.0,16.0,92,0.01,,,0.02,meteohub,2013-04-10 12:40:00,
2013-04-10 07:45:00,44.8,42.6,29.82,NW,315,9.0,16.0,92,0.01,,,0.02,meteohub,2013-04-10 12:45:00,
2013-04-10 07:50:00,44.8,42.6,29.82,North,0,3.0,16.0,92,0.01,,,0.02,meteohub,2013-04-10 12:50:00,
2013-04-10 07:56:00,44.8,42.6,29.81,North,351,5.0,16.0,92,0.00,,,0.02,meteohub,2013-04-10 12:56:00,
2013-04-10 08:01:00,45.0,42.8,29.82,NW,325,3.0,11.0,92,0.00,,,0.02,meteohub,2013-04-10 13:01:00,
2013-04-10 08:07:00,44.8,42.6,29.82,NNE,19,1.0,11.0,92,0.00,,,0.02,meteohub,2013-04-10 13:07:00,
2013-04-10 08:12:00,44.8,42.3,29.83,NNW,331,2.0,11.0,91,0.00,,,0.02,meteohub,2013-04-10 13:12:00,
2013-04-10 08:17:00,44.6,42.1,29.82,North,5,6.0,11.0,91,0.00,,,0.02,meteohub,2013-04-10 13:17:00,
2013-04-10 08:22:00,44.2,41.7,29.83,NW,304,5.0,10.0,91,0.00,,,0.02,meteohub,2013-04-10 13:22:00,
2013-04-10 08:27:00,44.2,41.7,29.84,NNW,341,3.0,10.0,91,0.00,,,0.02,meteohub,2013-04-10 13:27:00,
2013-04-10 08:32:00,44.2,41.7,29.83,NNW,332,5.0,10.0,91,0.00,,,0.02,meteohub,2013-04-10 13:32:00,
2013-04-10 08:37:00,44.1,41.5,29.84,NNW,333,5.0,10.0,91,0.00,,,0.02,meteohub,2013-04-10 13:37:00,
2013-04-10 08:42:00,44.1,41.9,29.86,WNW,300,14.0,14.0,92,0.00,,,0.02,meteohub,2013-04-10 13:42:00,
2013-04-10 08:47:00,44.1,41.5,29.85,NW,313,8.0,12.0,91,0.00,,,0.02,meteohub,2013-04-10 13:47:00,
2013-04-10 08:52:00,43.9,41.4,29.86,North,5,10.0,12.0,91,0.00,,,0.03,meteohub,2013-04-10 13:52:00,
2013-04-10 08:57:00,43.5,41.0,29.85,NNW,328,8.0,12.0,91,0.00,,,0.03,meteohub,2013-04-10 13:57:00,
2013-04-10 09:02:00,43.5,41.0,29.84,NNW,342,2.0,19.0,91,0.01,,,0.03,meteohub,2013-04-10 14:02:00,
2013-04-10 09:07:00,43.5,41.0,29.84,North,5,4.0,19.0,91,0.01,,,0.03,meteohub,2013-04-10 14:07:00,
2013-04-10 09:12:00,43.5,41.0,29.83,North,355,4.0,19.0,91,0.01,,,0.03,meteohub,2013-04-10 14:12:00,
2013-04-10 09:18:00,43.5,41.0,29.84,NNW,331,4.0,19.0,91,0.01,,,0.03,meteohub,2013-04-10 14:18:00,
2013-04-10 09:23:00,43.3,41.2,29.83,NNW,331,1.0,15.0,92,0.01,,,0.03,meteohub,2013-04-10 14:23:00,
2013-04-10 09:28:00,43.5,41.4,29.84,NNW,344,2.0,15.0,92,0.01,,,0.03,meteohub,2013-04-10 14:28:00,
2013-04-10 09:33:00,43.3,40.8,29.84,NNW,347,2.0,15.0,91,0.01,,,0.03,meteohub,2013-04-10 14:33:00,
2013-04-10 09:38:00,43.3,41.2,29.85,NNW,329,2.0,16.0,92,0.01,,,0.03,meteohub,2013-04-10 14:38:00,
2013-04-10 09:43:00,43.3,41.2,29.84,NNW,329,3.0,16.0,92,0.01,,,0.03,meteohub,2013-04-10 14:43:00,
2013-04-10 09:49:00,43.2,41.0,29.85,NW,311,3.0,16.0,92,0.01,,,0.03,meteohub,2013-04-10 14:49:00,
2013-04-10 09:54:00,43.2,41.0,29.84,NW,317,2.0,16.0,92,0.01,,,0.04,meteohub,2013-04-10 14:54:00,
2013-04-10 09:59:00,43.0,40.8,29.84,North,355,4.0,16.0,92,0.01,,,0.04,meteohub,2013-04-10 14:59:00,
2013-04-10 10:04:00,42.6,40.5,29.84,North,5,6.0,9.0,92,0.01,,,0.04,meteohub,2013-04-10 15:04:00,
2013-04-10 10:10:00,42.6,40.5,29.84,NW,315,2.0,9.0,92,0.01,,,0.04,meteohub,2013-04-10 15:10:00,
2013-04-10 10:15:00,42.6,40.5,29.84,NNW,348,7.0,9.0,92,0.01,,,0.04,meteohub,2013-04-10 15:15:00,
2013-04-10 10:21:00,42.6,40.5,29.85,NNW,327,4.0,11.0,92,0.01,,,0.04,meteohub,2013-04-10 15:21:00,
2013-04-10 10:26:00,42.6,40.5,29.85,NNW,327,3.0,11.0,92,0.01,,,0.04,meteohub,2013-04-10 15:26:00,
2013-04-10 10:31:00,42.4,40.3,29.86,NNW,333,6.0,11.0,92,0.01,,,0.05,meteohub,2013-04-10 15:31:00,
2013-04-10 10:36:00,42.4,40.6,29.87,NW,325,8.0,11.0,93,0.03,,,0.05,meteohub,2013-04-10 15:36:00,
2013-04-10 10:41:00,42.4,40.6,29.87,NNW,328,4.0,10.0,93,0.03,,,0.05,meteohub,2013-04-10 15:41:00,
2013-04-10 10:47:00,42.4,40.6,29.87,NW,312,5.0,10.0,93,0.03,,,0.06,meteohub,2013-04-10 15:47:00,
2013-04-10 10:52:00,42.4,40.6,29.89,NNW,327,7.0,11.0,93,0.02,,,0.06,meteohub,2013-04-10 15:52:00,
2013-04-10 10:57:00,42.4,40.6,29.88,NNW,329,8.0,11.0,93,0.02,,,0.06,meteohub,2013-04-10 15:57:00,
2013-04-10 11:02:00,42.4,40.6,29.89,NW,309,4.0,11.0,93,0.02,,,0.06,meteohub,2013-04-10 16:02:00,
2013-04-10 11:07:00,42.6,41.0,29.90,NNW,329,7.0,11.0,94,0.02,,,0.07,meteohub,2013-04-10 16:07:00,
2013-04-10 11:12:00,42.4,40.6,29.89,NW,319,5.0,11.0,93,0.04,,,0.07,meteohub,2013-04-10 16:12:00,
2013-04-10 11:17:00,42.4,40.8,29.89,NW,316,6.0,16.0,94,0.04,,,0.07,meteohub,2013-04-10 16:17:00,
2013-04-10 11:22:00,42.4,40.8,29.89,NNW,327,4.0,16.0,94,0.04,,,0.08,meteohub,2013-04-10 16:22:00,
2013-04-10 11:27:00,42.4,40.8,29.89,North,355,4.0,16.0,94,0.04,,,0.08,meteohub,2013-04-10 16:27:00,
2013-04-10 11:33:00,42.3,40.6,29.89,NW,306,6.0,13.0,94,0.03,,,0.08,meteohub,2013-04-10 16:33:00,
2013-04-10 11:38:00,42.1,40.3,29.88,NW,313,6.0,13.0,93,0.03,,,0.08,meteohub,2013-04-10 16:38:00,
2013-04-10 11:43:00,42.1,40.5,29.89,NNE,17,5.0,13.0,94,0.03,,,0.09,meteohub,2013-04-10 16:43:00,
2013-04-10 11:49:00,41.7,39.9,29.89,WNW,296,6.0,19.0,93,0.04,,,0.09,meteohub,2013-04-10 16:49:00,
2013-04-10 11:54:00,41.4,39.6,29.87,North,5,5.0,19.0,93,0.04,,,0.10,meteohub,2013-04-10 16:54:00,
2013-04-10 11:59:00,41.4,39.6,29.90,NNW,333,7.0,19.0,93,0.04,,,0.10,meteohub,2013-04-10 16:59:00,
2013-04-10 12:05:00,41.4,39.6,29.88,NNW,332,7.0,19.0,93,0.04,,,0.10,meteohub,2013-04-10 17:05:00,
2013-04-10 12:10:00,41.2,39.4,29.88,NNW,338,4.0,19.0,93,0.04,,,0.12,meteohub,2013-04-10 17:10:00,
2013-04-10 12:15:00,41.0,39.2,29.85,NNW,347,3.0,17.0,93,0.06,,,0.12,meteohub,2013-04-10 17:15:00,
2013-04-10 12:20:00,41.0,39.4,29.91,NW,318,9.0,17.0,94,0.06,,,0.12,meteohub,2013-04-10 17:20:00,
2013-04-10 12:26:00,40.8,39.0,29.89,WNW,288,9.0,17.0,93,0.06,,,0.15,meteohub,2013-04-10 17:26:00,
2013-04-10 12:32:00,40.8,39.0,29.87,NNW,334,8.0,19.0,93,0.10,,,0.15,meteohub,2013-04-10 17:32:00,
2013-04-10 12:37:00,40.8,39.2,29.90,NW,314,6.0,19.0,94,0.10,,,0.15,meteohub,2013-04-10 17:37:00,
2013-04-10 12:42:00,40.8,39.2,29.91,NW,314,6.0,19.0,94,0.10,,,0.15,meteohub,2013-04-10 17:42:00,
2013-04-10 12:47:00,40.8,39.2,29.90,NW,319,14.0,19.0,94,0.19,,,0.28,meteohub,2013-04-10 17:47:00,
2013-04-10 12:53:00,40.6,39.0,29.88,WNW,300,5.0,15.0,94,0.19,,,0.28,meteohub,2013-04-10 17:53:00,
2013-04-10 12:58:00,40.8,39.2,29.90,NW,309,6.0,15.0,94,0.19,,,0.30,meteohub,2013-04-10 17:58:00,
2013-04-10 13:03:00,41.0,39.4,29.85,NW,315,9.0,15.0,94,0.19,,,0.30,meteohub,2013-04-10 18:03:00,
2013-04-10 13:08:00,41.2,39.6,29.88,NNW,342,7.0,17.0,94,0.18,,,0.30,meteohub,2013-04-10 18:08:00,
2013-04-10 13:13:00,41.2,39.4,29.88,NNW,332,6.0,17.0,93,0.18,,,0.30,meteohub,2013-04-10 18:13:00,
2013-04-10 13:18:00,41.2,39.4,29.88,NNW,328,2.0,17.0,93,0.18,,,0.30,meteohub,2013-04-10 18:18:00,
2013-04-10 13:24:00,41.2,39.4,29.87,NW,311,5.0,13.0,93,0.15,,,0.30,meteohub,2013-04-10 18:24:00,
2013-04-10 13:29:00,41.5,39.7,29.88,North,5,7.0,13.0,93,0.15,,,0.30,meteohub,2013-04-10 18:29:00,
2013-04-10 13:34:00,42.3,40.6,29.88,NW,315,13.0,13.0,94,0.15,,,0.30,meteohub,2013-04-10 18:34:00,
2013-04-10 13:39:00,42.6,40.5,29.87,North,5,9.0,19.0,92,0.06,,,0.30,meteohub,2013-04-10 18:39:00,
2013-04-10 13:44:00,42.6,40.5,29.87,NNW,335,9.0,19.0,92,0.06,,,0.30,meteohub,2013-04-10 18:44:00,
2013-04-10 13:50:00,43.0,40.8,29.87,NNW,340,14.0,24.0,92,0.01,,,0.30,meteohub,2013-04-10 18:50:00,
2013-04-10 13:55:00,43.2,40.5,29.88,North,351,4.0,24.0,90,0.01,,,0.30,meteohub,2013-04-10 18:55:00,
2013-04-10 14:00:00,43.0,40.3,29.87,North,350,9.0,24.0,90,0.01,,,0.30,meteohub,2013-04-10 19:00:00,
2013-04-10 14:06:00,43.0,40.3,29.87,NW,317,7.0,17.0,90,0.00,,,0.30,meteohub,2013-04-10 19:06:00,
2013-04-10 14:11:00,42.8,40.1,29.86,NNW,346,5.0,17.0,90,0.00,,,0.30,meteohub,2013-04-10 19:11:00,
2013-04-10 14:16:00,43.0,40.3,29.88,NW,319,4.0,20.0,90,0.00,,,0.30,meteohub,2013-04-10 19:16:00,
2013-04-10 14:22:00,42.8,40.1,29.88,NNW,331,6.0,20.0,90,0.00,,,0.30,meteohub,2013-04-10 19:22:00,
2013-04-10 14:27:00,42.8,40.3,29.87,NNW,338,7.0,19.0,91,0.00,,,0.30,meteohub,2013-04-10 19:27:00,
2013-04-10 14:32:00,42.8,40.3,29.86,NNW,342,5.0,19.0,91,0.00,,,0.30,meteohub,2013-04-10 19:32:00,
2013-04-10 14:37:00,42.8,40.1,29.87,NW,317,4.0,19.0,90,0.00,,,0.30,meteohub,2013-04-10 19:37:00,
2013-04-10 14:43:00,42.8,40.1,29.88,WNW,303,8.0,16.0,90,0.00,,,0.30,meteohub,2013-04-10 19:43:00,
2013-04-10 14:48:00,42.8,40.1,29.87,NW,321,9.0,16.0,90,0.00,,,0.30,meteohub,2013-04-10 19:48:00,
2013-04-10 14:53:00,42.6,39.9,29.86,North,0,6.0,16.0,90,0.00,,,0.30,meteohub,2013-04-10 19:53:00,
2013-04-10 14:58:00,42.8,40.1,29.87,NW,309,8.0,16.0,90,0.00,,,0.30,meteohub,2013-04-10 19:58:00,
2013-04-10 15:03:00,43.0,40.5,29.86,NW,319,6.0,16.0,91,0.00,,,0.30,meteohub,2013-04-10 20:03:00,
2013-04-10 15:08:00,43.0,40.3,29.86,NW,324,5.0,15.0,90,0.00,,,0.30,meteohub,2013-04-10 20:08:00,
2013-04-10 15:14:00,42.8,39.7,29.86,NNW,340,8.0,17.0,89,0.00,,,0.30,meteohub,2013-04-10 20:14:00,
2013-04-10 15:19:00,42.6,39.9,29.86,North,5,7.0,17.0,90,0.00,,,0.30,meteohub,2013-04-10 20:19:00,
2013-04-10 15:24:00,42.6,39.6,29.86,NW,311,9.0,17.0,89,0.00,,,0.30,meteohub,2013-04-10 20:24:00,
2013-04-10 15:29:00,43.0,39.9,29.85,NW,324,12.0,20.0,89,0.00,,,0.30,meteohub,2013-04-10 20:29:00,
2013-04-10 15:34:00,43.0,39.7,29.85,NNW,328,7.0,20.0,88,0.00,,,0.30,meteohub,2013-04-10 20:34:00,
2013-04-10 15:39:00,43.2,39.9,29.86,North,355,11.0,20.0,88,0.00,,,0.30,meteohub,2013-04-10 20:39:00,
2013-04-10 15:45:00,43.3,40.1,29.86,NW,325,15.0,20.0,88,0.00,,,0.30,meteohub,2013-04-10 20:45:00,
2013-04-10 15:50:00,43.3,39.7,29.86,North,355,8.0,19.0,87,0.00,,,0.30,meteohub,2013-04-10 20:50:00,
2013-04-10 15:55:00,43.2,39.9,29.86,NW,321,7.0,19.0,88,0.00,,,0.30,meteohub,2013-04-10 20:55:00,
2013-04-10 16:00:00,43.3,40.1,29.87,NNW,327,5.0,19.0,88,0.00,,,0.30,meteohub,2013-04-10 21:00:00,
2013-04-10 16:05:00,43.0,39.7,29.88,NNW,335,4.0,18.0,88,0.00,,,0.30,meteohub,2013-04-10 21:05:00,
2013-04-10 16:10:00,42.8,39.6,29.87,NW,316,7.0,18.0,88,0.00,,,0.30,meteohub,2013-04-10 21:10:00,
2013-04-10 16:16:00,43.0,39.7,29.88,NNW,329,6.0,19.0,88,0.00,,,0.30,meteohub,2013-04-10 21:16:00,
2013-04-10 16:21:00,43.2,39.9,29.87,NNW,346,10.0,19.0,88,0.00,,,0.30,meteohub,2013-04-10 21:21:00,
2013-04-10 16:27:00,43.2,39.6,29.87,NW,319,10.0,15.0,87,0.00,,,0.30,meteohub,2013-04-10 21:27:00,
2013-04-10 16:32:00,43.2,39.9,29.87,NW,325,12.0,15.0,88,0.00,,,0.30,meteohub,2013-04-10 21:32:00,
2013-04-10 16:37:00,43.0,39.7,29.87,NW,323,6.0,15.0,88,0.00,,,0.30,meteohub,2013-04-10 21:37:00,
2013-04-10 16:42:00,43.0,39.9,29.86,NW,317,5.0,20.0,89,0.00,,,0.30,meteohub,2013-04-10 21:42:00,
2013-04-10 16:47:00,43.0,39.4,29.87,NNW,333,3.0,20.0,87,0.00,,,0.30,meteohub,2013-04-10 21:47:00,
2013-04-10 16:52:00,43.0,39.0,29.86,NW,320,13.0,17.0,86,0.00,,,0.30,meteohub,2013-04-10 21:52:00,
2013-04-10 16:57:00,43.2,39.0,29.87,NW,321,6.0,17.0,85,0.00,,,0.30,meteohub,2013-04-10 21:57:00,
2013-04-10 17:03:00,43.2,39.0,29.87,NNW,331,5.0,17.0,85,0.00,,,0.30,meteohub,2013-04-10 22:03:00,
2013-04-10 17:08:00,43.3,39.2,29.87,NW,311,4.0,19.0,85,0.00,,,0.30,meteohub,2013-04-10 22:08:00,
2013-04-10 17:13:00,43.3,39.2,29.88,NNW,329,5.0,19.0,85,0.00,,,0.30,meteohub,2013-04-10 22:13:00,
2013-04-10 17:18:00,43.3,38.8,29.88,North,355,5.0,18.0,84,0.00,,,0.30,meteohub,2013-04-10 22:18:00,
2013-04-10 17:23:00,43.3,38.8,29.88,WNW,302,9.0,18.0,84,0.00,,,0.30,meteohub,2013-04-10 22:23:00,
2013-04-10 17:28:00,43.3,38.8,29.88,NW,325,9.0,17.0,84,0.00,,,0.30,meteohub,2013-04-10 22:28:00,
2013-04-10 17:34:00,43.5,39.0,29.87,North,355,4.0,17.0,84,0.00,,,0.30,meteohub,2013-04-10 22:34:00,
2013-04-10 17:39:00,43.7,39.2,29.87,NNW,334,3.0,17.0,84,0.00,,,0.30,meteohub,2013-04-10 22:39:00,
2013-04-10 17:45:00,43.9,39.4,29.87,North,355,4.0,16.0,84,0.00,,,0.30,meteohub,2013-04-10 22:45:00,
2013-04-10 17:50:00,43.9,39.0,29.87,NNW,344,4.0,16.0,83,0.00,,,0.30,meteohub,2013-04-10 22:50:00,
2013-04-10 17:55:00,43.9,39.4,29.87,NNW,343,3.0,16.0,84,0.00,,,0.30,meteohub,2013-04-10 22:55:00,
2013-04-10 18:00:00,44.1,39.2,29.87,North,0,5.0,16.0,83,0.00,,,0.30,meteohub,2013-04-10 23:00:00,
2013-04-10 18:06:00,44.1,39.6,29.87,NW,314,3.0,14.0,84,0.00,,,0.30,meteohub,2013-04-10 23:06:00,
2013-04-10 18:12:00,44.4,39.9,29.87,NW,322,0.0,14.0,84,0.00,,,0.30,meteohub,2013-04-10 23:12:00,
2013-04-10 18:17:00,44.4,39.6,29.87,NNW,332,4.0,13.0,83,0.00,,,0.30,meteohub,2013-04-10 23:17:00,
2013-04-10 18:22:00,44.6,39.7,29.88,NW,307,7.0,13.0,83,0.00,,,0.30,meteohub,2013-04-10 23:22:00,
2013-04-10 18:28:00,44.6,39.7,29.88,NNW,340,11.0,13.0,83,0.00,,,0.30,meteohub,2013-04-10 23:28:00,
2013-04-10 18:33:00,44.8,39.9,29.88,NNW,329,4.0,14.0,83,0.00,,,0.30,meteohub,2013-04-10 23:33:00,
2013-04-10 18:38:00,44.8,39.9,29.88,NW,326,4.0,14.0,83,0.00,,,0.30,meteohub,2013-04-10 23:38:00,
2013-04-10 18:44:00,45.0,40.1,29.88,NNW,333,2.0,14.0,83,0.00,,,0.30,meteohub,2013-04-10 23:44:00,
2013-04-10 18:49:00,45.3,40.8,29.88,North,355,3.0,11.0,84,0.00,,,0.30,meteohub,2013-04-10 23:49:00,
2013-04-10 18:54:00,45.5,40.3,29.88,North,0,4.0,11.0,82,0.00,,,0.30,meteohub,2013-04-10 23:54:00,
2013-04-10 18:59:00,45.3,40.1,29.88,NNW,332,1.0,11.0,82,0.00,,,0.30,meteohub,2013-04-10 23:59:00,
2013-04-10 19:04:00,45.5,40.3,29.89,NNW,341,2.0,11.0,82,0.00,,,0.30,meteohub,2013-04-11 00:04:00,
2013-04-10 19:09:00,45.7,40.5,29.89,NW,311,2.0,9.0,82,0.00,,,0.30,meteohub,2013-04-11 00:09:00,
2013-04-10 19:15:00,45.7,40.5,29.89,NW,325,6.0,9.0,82,0.00,,,0.30,meteohub,2013-04-11 00:15:00,
2013-04-10 19:20:00,45.5,40.3,29.89,NNW,328,3.0,9.0,82,0.00,,,0.30,meteohub,2013-04-11 00:20:00,
2013-04-10 19:26:00,45.5,40.6,29.89,NW,319,2.0,7.0,83,0.00,,,0.30,meteohub,2013-04-11 00:26:00,
2013-04-10 19:32:00,45.3,40.5,29.89,NW,322,3.0,7.0,83,0.00,,,0.30,meteohub,2013-04-11 00:32:00,
2013-04-10 19:37:00,45.3,40.1,29.90,NW,312,3.0,7.0,82,0.00,,,0.30,meteohub,2013-04-11 00:37:00,
2013-04-10 19:42:00,45.1,40.3,29.90,NW,313,4.0,7.0,83,0.00,,,0.30,meteohub,2013-04-11 00:42:00,
2013-04-10 19:47:00,45.0,40.1,29.90,NW,320,3.0,7.0,83,0.00,,,0.30,meteohub,2013-04-11 00:47:00,
2013-04-10 19:53:00,44.8,39.9,29.90,NW,321,4.0,8.0,83,0.00,,,0.30,meteohub,2013-04-11 00:53:00,
2013-04-10 19:58:00,44.8,39.9,29.90,NW,323,2.0,8.0,83,0.00,,,0.30,meteohub,2013-04-11 00:58:00,
2013-04-10 20:03:00,44.6,39.7,29.90,NW,321,4.0,8.0,83,0.00,,,0.30,meteohub,2013-04-11 01:03:00,
2013-04-10 20:08:00,44.4,39.9,29.90,NNW,335,1.0,8.0,84,0.00,,,0.30,meteohub,2013-04-11 01:08:00,
2013-04-10 20:13:00,44.2,39.7,29.90,NNW,336,1.0,8.0,84,0.00,,,0.30,meteohub,2013-04-11 01:13:00,
2013-04-10 20:18:00,44.2,39.7,29.89,NW,325,0.0,8.0,84,0.00,,,0.30,meteohub,2013-04-11 01:18:00,
2013-04-10 20:24:00,44.1,39.9,29.89,NW,316,0.0,8.0,85,0.00,,,0.30,meteohub,2013-04-11 01:24:00,
2013-04-10 20:29:00,44.1,39.9,29.89,North,0,3.0,5.0,85,0.00,,,0.30,meteohub,2013-04-11 01:29:00,
2013-04-10 20:34:00,44.1,39.9,29.89,NW,311,0.0,5.0,85,0.00,,,0.30,meteohub,2013-04-11 01:34:00,
2013-04-10 20:40:00,44.1,39.9,29.90,NW,311,1.0,5.0,85,0.00,,,0.30,meteohub,2013-04-11 01:40:00,
2013-04-10 20:45:00,43.9,39.9,29.90,NW,311,0.0,5.0,86,0.00,,,0.30,meteohub,2013-04-11 01:45:00,
2013-04-10 20:50:00,43.5,39.6,29.90,NW,311,1.0,4.0,86,0.00,,,0.30,meteohub,2013-04-11 01:50:00,
2013-04-10 20:55:00,43.5,39.9,29.90,NW,311,0.0,4.0,87,0.00,,,0.30,meteohub,2013-04-11 01:55:00,
2013-04-10 21:00:00,43.3,39.7,29.90,NW,311,0.0,4.0,87,0.00,,,0.30,meteohub,2013-04-11 02:00:00,
2013-04-10 21:05:00,43.2,39.9,29.91,NW,311,0.0,3.0,88,0.00,,,0.30,meteohub,2013-04-11 02:05:00,
2013-04-10 21:11:00,43.2,39.9,29.91,NW,311,0.0,3.0,88,0.00,,,0.30,meteohub,2013-04-11 02:11:00,
2013-04-10 21:17:00,42.8,39.6,29.91,NW,311,0.0,1.0,88,0.00,,,0.30,meteohub,2013-04-11 02:17:00,
2013-04-10 21:22:00,42.6,39.6,29.91,NW,311,1.0,1.0,89,0.00,,,0.30,meteohub,2013-04-11 02:22:00,
2013-04-10 21:27:00,42.6,39.6,29.92,NW,311,0.0,1.0,89,0.00,,,0.30,meteohub,2013-04-11 02:27:00,
2013-04-10 21:32:00,42.6,39.6,29.92,NW,311,2.0,2.0,89,0.00,,,0.30,meteohub,2013-04-11 02:32:00,
2013-04-10 21:37:00,42.6,39.9,29.93,NW,311,2.0,2.0,90,0.00,,,0.30,meteohub,2013-04-11 02:37:00,
2013-04-10 21:42:00,42.8,40.1,29.93,NW,311,1.0,5.0,90,0.00,,,0.30,meteohub,2013-04-11 02:42:00,
2013-04-10 21:47:00,43.2,40.5,29.93,NW,311,0.0,5.0,90,0.00,,,0.30,meteohub,2013-04-11 02:47:00,
2013-04-10 21:53:00,43.5,40.5,29.93,NW,311,2.0,5.0,89,0.00,,,0.30,meteohub,2013-04-11 02:53:00,
2013-04-10 21:58:00,43.9,40.8,29.93,NNW,327,2.0,5.0,89,0.00,,,0.30,meteohub,2013-04-11 02:58:00,
2013-04-10 22:03:00,43.9,40.6,29.94,NW,315,0.0,5.0,88,0.00,,,0.30,meteohub,2013-04-11 03:03:00,
2013-04-10 22:09:00,43.7,40.5,29.94,NNW,330,5.0,6.0,88,0.00,,,0.30,meteohub,2013-04-11 03:09:00,
2013-04-10 22:14:00,43.9,40.6,29.94,NW,313,2.0,7.0,88,0.00,,,0.30,meteohub,2013-04-11 03:14:00,
2013-04-10 22:19:00,44.1,40.5,29.93,NW,313,6.0,7.0,87,0.00,,,0.30,meteohub,2013-04-11 03:19:00,
2013-04-10 22:24:00,44.2,40.3,29.93,North,349,3.0,7.0,86,0.00,,,0.30,meteohub,2013-04-11 03:24:00,
2013-04-10 22:29:00,44.6,40.1,29.93,NNW,333,1.0,12.0,84,0.00,,,0.30,meteohub,2013-04-11 03:29:00,
2013-04-10 22:34:00,44.8,40.3,29.93,NNW,329,1.0,12.0,84,0.00,,,0.30,meteohub,2013-04-11 03:34:00,
2013-04-10 22:39:00,45.0,40.5,29.93,NW,321,2.0,12.0,84,0.00,,,0.30,meteohub,2013-04-11 03:39:00,
2013-04-10 22:45:00,45.1,40.6,29.93,NNW,338,1.0,12.0,84,0.00,,,0.30,meteohub,2013-04-11 03:45:00,
2013-04-10 22:50:00,45.1,40.3,29.94,NW,313,3.0,10.0,83,0.00,,,0.30,meteohub,2013-04-11 03:50:00,
2013-04-10 22:56:00,45.3,40.5,29.94,NNW,342,2.0,10.0,83,0.00,,,0.30,meteohub,2013-04-11 03:56:00,
2013-04-10 23:00:00,45.3,40.5,29.94,NNW,345,2.0,10.0,83,0.00,,,0.30,meteohub,2013-04-11 04:00:00,
2013-04-10 23:02:00,45.3,40.1,29.93,NW,321,3.0,10.0,82,0.00,,,0.30,meteohub,2013-04-11 04:02:00,
2013-04-10 23:07:00,45.0,39.6,29.94,NNW,340,0.0,12.0,81,0.00,,,0.30,meteohub,2013-04-11 04:07:00,
2013-04-10 23:08:00,44.8,39.0,29.94,NNE,28,1.0,12.0,80,0.00,,,0.30,meteohub,2013-04-11 04:08:00,
2013-04-10 23:14:00,44.2,38.5,29.93,North,350,2.0,7.0,80,0.00,,,0.30,meteohub,2013-04-11 04:14:00,
2013-04-10 23:19:00,44.1,38.3,29.94,North,0,1.0,7.0,80,0.00,,,0.30,meteohub,2013-04-11 04:19:00,
2013-04-10 23:24:00,43.5,38.1,29.94,NNW,333,2.0,7.0,81,0.00,,,0.30,meteohub,2013-04-11 04:24:00,
2013-04-10 23:30:00,43.2,37.4,29.95,North,5,4.0,9.0,80,0.00,,,0.30,meteohub,2013-04-11 04:30:00,
2013-04-10 23:35:00,42.8,37.0,29.95,NNW,333,3.0,9.0,80,0.00,,,0.30,meteohub,2013-04-11 04:35:00,
2013-04-10 23:40:00,42.6,37.2,29.95,North,349,1.0,9.0,81,0.00,,,0.30,meteohub,2013-04-11 04:40:00,
2013-04-10 23:45:00,42.4,37.0,29.96,NW,317,0.0,12.0,81,0.00,,,0.30,meteohub,2013-04-11 04:45:00,
2013-04-10 23:50:00,42.3,36.9,29.95,NNW,346,1.0,9.0,81,0.00,,,0.30,meteohub,2013-04-11 04:50:00,
2013-04-10 23:56:00,42.1,36.7,29.96,NW,323,7.0,9.0,81,0.00,,,0.30,meteohub,2013-04-11 04:56:00,